Time;durP1;ratioP1;P1;durP2;ratioP2;P2;SDS_P1;SDS_P2;PMS_P1;PMS_P2;Temp;Humidity;BMP_temperature;BMP_pressure;BME280_temperature;BME280_humidity;BME280_pressure;Samples;Min_cycle;Max_cycle;Signal;HPM_P1;HPM_P2
2022/09/16 00:00:33;;;;;;;5.55;2.87;;;;;;;20.73;78.07;152864.61;1744978;80;20973;-74
2022/09/16 00:03:00;;;;;;;6.85;3.17;;;;;;;20.68;78.33;152851.55;1751994;80;21052;-75
2022/09/16 00:05:27;;;;;;;5.97;3.30;;;;;;;20.65;78.55;152843.67;1722427;80;20988;-74
2022/09/16 00:07:54;;;;;;;8.43;3.12;;;;;;;20.61;78.47;152835.84;1751241;80;21053;-75
2022/09/16 00:10:22;;;;;;;6.85;3.20;;;;;;;20.60;78.33;152833.22;1729143;80;21121;-73
2022/09/16 00:12:49;;;;;;;6.37;3.45;;;;;;;20.60;78.27;152833.22;1715441;80;21441;-74
2022/09/16 00:15:16;;;;;;;7.80;2.65;;;;;;;20.60;78.24;152831.94;1724507;80;21007;-75
2022/09/16 00:17:43;;;;;;;4.15;2.60;;;;;;;20.59;78.14;152830.63;1731551;80;21960;-73
2022/09/16 00:20:09;;;;;;;4.65;2.12;;;;;;;20.60;78.03;152833.22;1746608;80;21054;-75
2022/09/16 00:22:36;;;;;;;4.05;2.00;;;;;;;20.59;77.96;152830.63;1741920;80;21559;-74
2022/09/16 00:25:06;;;;;;;4.40;1.72;;;;;;;20.63;77.89;152839.78;1751523;80;21093;-72
2022/09/16 00:27:33;;;;;;;2.75;1.80;;;;;;;20.66;77.69;152846.28;1753084;80;21086;-74
2022/09/16 00:30:00;;;;;;;5.97;1.70;;;;;;;20.67;77.43;152848.89;1763797;80;21319;-61
2022/09/16 00:32:26;;;;;;;4.15;1.40;;;;;;;20.72;77.17;152862.00;1745779;80;21038;-61
2022/09/16 00:34:53;;;;;;;2.75;1.35;;;;;;;20.74;76.91;152868.50;1742018;80;21038;-60
2022/09/16 00:37:20;;;;;;;3.02;1.50;;;;;;;20.77;76.75;152875.05;1740215;80;21105;-60
2022/09/16 00:39:48;;;;;;;2.67;1.60;;;;;;;20.78;76.55;152877.66;1747058;80;21088;-61
2022/09/16 00:42:17;;;;;;;5.70;1.50;;;;;;;20.79;76.48;152880.28;1732035;81;21470;-61
2022/09/16 00:45:06;;;;;;;2.42;1.40;;;;;;;20.82;76.35;152886.88;1734821;80;20938;-61
2022/09/16 00:47:44;;;;;;;1.75;1.20;;;;;;;20.84;76.10;152892.09;1730804;80;21029;-60
2022/09/16 00:50:37;;;;;;;3.02;1.55;;;;;;;20.87;75.81;152901.22;1746549;80;21520;-61
2022/09/16 00:53:12;;;;;;;1.85;1.25;;;;;;;20.93;75.39;152914.31;1747911;80;21073;-60
2022/09/16 00:55:38;;;;;;;3.92;1.40;;;;;;;20.97;75.19;152924.75;1742557;80;22200;-61
2022/09/16 00:58:16;;;;;;;7.50;1.65;;;;;;;20.99;74.96;152931.27;1735154;80;21042;-60
2022/09/16 01:00:43;;;;;;;1.95;1.32;;;;;;;21.01;74.89;152935.20;1739675;80;21017;-60
2022/09/16 01:03:10;;;;;;;4.40;2.02;;;;;;;21.02;74.91;152937.81;1734949;80;21053;-61
2022/09/16 01:05:37;;;;;;;3.55;1.47;;;;;;;21.00;74.88;152932.59;1745141;80;21061;-60
2022/09/16 01:08:04;;;;;;;4.92;1.90;;;;;;;20.98;75.06;152927.38;1730192;81;21800;-61
2022/09/16 01:10:31;;;;;;;6.10;1.70;;;;;;;20.95;75.28;152920.81;1738001;80;22232;-61
2022/09/16 01:13:02;;;;;;;4.28;1.50;;;;;;;20.93;75.37;152915.59;1728630;80;21107;-60
2022/09/16 01:15:51;;;;;;;2.65;1.30;;;;;;;20.92;75.07;152911.70;1737363;80;21480;-61
2022/09/16 01:18:46;;;;;;;2.25;1.30;;;;;;;20.94;74.76;152916.92;1705041;81;21125;-61
2022/09/16 01:21:30;;;;;;;9.40;1.67;;;;;;;20.98;74.31;152927.38;1713984;80;21249;-61
2022/09/16 01:24:21;;;;;;;2.25;1.30;;;;;;;21.04;73.76;152943.05;1735942;80;21145;-62
2022/09/16 01:27:10;;;;;;;4.65;1.30;;;;;;;21.13;73.03;152966.59;1728799;80;21001;-61
2022/09/16 01:29:57;;;;;;;3.58;1.20;;;;;;;21.24;72.38;152992.72;1715719;80;20979;-60
2022/09/16 01:32:41;;;;;;;3.27;1.20;;;;;;;21.32;71.87;153013.61;1715281;81;21368;-61
2022/09/16 01:35:32;;;;;;;4.10;1.20;;;;;;;21.39;71.44;153030.61;1725453;80;21122;-60
2022/09/16 01:38:22;;;;;;;5.05;1.27;;;;;;;21.44;71.16;153043.67;1725865;80;21521;-60
2022/09/16 01:41:13;;;;;;;3.95;1.35;;;;;;;21.46;70.97;153048.94;1730556;80;21039;-61
2022/09/16 01:44:18;;;;;;;3.72;1.30;;;;;;;21.49;70.67;153056.78;1722867;80;21061;-60
2022/09/16 01:47:06;;;;;;;2.22;1.27;;;;;;;21.52;70.48;153063.28;1714242;80;20983;-60
2022/09/16 01:50:12;;;;;;;2.80;1.20;;;;;;;21.54;70.19;153068.50;1719899;80;21165;-60
2022/09/16 01:52:47;;;;;;;2.22;1.30;;;;;;;21.58;69.95;153079.00;1720241;80;21277;-74
2022/09/16 01:55:20;;;;;;;;;;;;;;;21.61;69.76;153086.84;1716656;80;21442;-73
2022/09/16 01:57:58;;;;;;;4.10;1.17;;;;;;;21.63;69.63;153092.06;1744837;80;20472;-60
2022/09/16 02:00:25;;;;;;;1.12;1.00;;;;;;;21.63;69.66;153092.06;1726158;80;21050;-61
2022/09/16 02:03:05;;;;;;;3.52;1.22;;;;;;;21.63;69.72;153092.06;1728680;80;21223;-61
2022/09/16 02:05:45;;;;;;;3.85;1.20;;;;;;;21.61;69.72;153086.84;1735301;80;21092;-61
2022/09/16 02:08:13;;;;;;;1.30;1.05;;;;;;;21.59;69.76;153082.91;1721286;80;21058;-60
2022/09/16 02:10:45;;;;;;;2.15;1.20;;;;;;;21.58;69.82;153079.00;1745950;80;21088;-60
2022/09/16 02:13:23;;;;;;;2.35;1.20;;;;;;;21.54;69.89;153069.84;1722448;80;21371;-62
2022/09/16 02:15:51;;;;;;;5.53;1.20;;;;;;;21.53;70.03;153067.22;1734606;80;21239;-60
2022/09/16 02:18:22;;;;;;;2.67;1.10;;;;;;;21.51;70.14;153062.00;1742397;80;21006;-61
2022/09/16 02:20:49;;;;;;;4.45;1.27;;;;;;;21.50;70.19;153058.06;1720859;81;21077;-61
2022/09/16 02:23:20;;;;;;;3.35;1.50;;;;;;;21.51;70.25;153060.67;1737876;80;21426;-60
2022/09/16 02:25:47;;;;;;;2.72;1.30;;;;;;;21.51;70.26;153060.67;1755975;80;20981;-61
2022/09/16 02:28:22;;;;;;;5.47;1.15;;;;;;;21.53;70.25;153065.91;1755253;80;21145;-61
2022/09/16 02:30:51;;;;;;;4.25;1.20;;;;;;;21.54;70.29;153068.50;1730050;80;21037;-60
2022/09/16 02:33:18;;;;;;;2.42;1.12;;;;;;;21.55;70.22;153072.45;1733566;80;20994;-60
2022/09/16 02:35:47;;;;;;;1.75;1.10;;;;;;;21.57;70.11;153076.39;1758717;80;21050;-61
2022/09/16 02:38:21;;;;;;;3.10;1.30;;;;;;;21.59;69.99;153081.63;1741929;80;21042;-61
2022/09/16 02:40:56;;;;;;;3.57;1.10;;;;;;;21.62;69.89;153089.45;1736374;80;21208;-61
2022/09/16 02:43:23;;;;;;;5.75;1.37;;;;;;;21.64;69.67;153094.69;1727728;80;21012;-61
2022/09/16 02:46:29;;;;;;;2.60;1.20;;;;;;;21.67;69.60;153102.56;1763481;80;21028;-61
2022/09/16 02:49:26;;;;;;;1.57;1.10;;;;;;;21.68;69.47;153105.19;1740935;80;21030;-61
2022/09/16 02:52:25;;;;;;;3.08;1.35;;;;;;;21.70;69.52;153110.41;1747237;80;21081;-61
2022/09/16 02:55:16;;;;;;;2.77;1.40;;;;;;;21.67;69.73;153102.56;1751036;80;21231;-61
2022/09/16 02:57:42;;;;;;;3.58;1.27;;;;;;;21.62;70.12;153089.45;1745665;80;21033;-60
2022/09/16 03:00:10;;;;;;;4.58;1.27;;;;;;;21.57;70.37;153077.67;1746195;80;21524;-61
2022/09/16 03:02:37;;;;;;;2.70;1.20;;;;;;;21.54;70.67;153068.50;1737140;80;21763;-61
2022/09/16 03:05:05;;;;;;;3.92;1.25;;;;;;;21.50;70.92;153058.06;1728969;80;21125;-61
2022/09/16 03:07:32;;;;;;;2.77;1.30;;;;;;;21.46;70.87;153048.94;1753436;80;21238;-61
2022/09/16 03:09:59;;;;;;;4.50;1.30;;;;;;;21.45;70.42;153046.33;1751278;80;20986;-61
2022/09/16 03:13:11;;;;;;;2.87;1.17;;;;;;;21.47;69.86;153052.83;1730413;80;21050;-61
2022/09/16 03:16:32;;;;;;;4.47;1.32;;;;;;;21.55;69.43;153072.45;1747446;81;21391;-61
2022/09/16 03:19:40;;;;;;;3.62;1.20;;;;;;;21.65;68.80;153097.34;1758592;80;21035;-61
2022/09/16 03:22:24;;;;;;;4.30;2.02;;;;;;;21.78;68.40;153128.75;1757532;80;21360;-61
2022/09/16 03:25:14;;;;;;;3.08;1.32;;;;;;;21.86;68.00;153150.94;1756240;80;20959;-61
2022/09/16 03:27:46;;;;;;;3.72;1.30;;;;;;;21.96;67.58;153175.78;1755312;80;21239;-60
2022/09/16 03:30:13;;;;;;;2.12;1.17;;;;;;;22.06;67.27;153199.34;1757867;80;21042;-61
2022/09/16 03:32:45;;;;;;;4.17;1.52;;;;;;;22.13;67.30;153217.63;1754156;80;21682;-60
2022/09/16 03:35:20;;;;;;;3.10;1.35;;;;;;;22.19;67.78;153233.31;1769594;80;21177;-60
2022/09/16 03:37:47;;;;;;;1.95;1.40;;;;;;;22.23;68.43;153243.81;1746225;80;21634;-62
2022/09/16 03:40:15;;;;;;;3.75;1.52;;;;;;;22.24;69.14;153245.09;1738531;80;21088;-61
2022/09/16 03:42:42;;;;;;;2.77;1.30;;;;;;;22.20;69.78;153235.92;1744997;80;21018;-62
2022/09/16 03:45:15;;;;;;;4.92;1.50;;;;;;;22.17;70.42;153228.09;1742162;80;21046;-62
2022/09/16 03:47:43;;;;;;;3.40;1.50;;;;;;;22.13;71.12;153217.63;1760775;80;21490;-75
2022/09/16 03:50:10;;;;;;;1.92;1.30;;;;;;;22.11;71.78;153212.41;1756920;80;21070;-75
2022/09/16 03:52:38;;;;;;;4.35;1.80;;;;;;;22.11;72.29;153212.41;1742477;80;21548;-76
2022/09/16 03:55:06;;;;;;;2.67;1.40;;;;;;;22.09;72.71;153207.19;1728090;80;21109;-76
2022/09/16 03:57:33;;;;;;;5.55;1.60;;;;;;;22.09;72.70;153207.19;1741516;80;21081;-76
2022/09/16 04:00:01;;;;;;;7.15;1.60;;;;;;;22.09;72.66;153208.47;1758528;80;21014;-76
2022/09/16 04:02:30;;;;;;;4.90;1.75;;;;;;;22.14;72.56;153220.25;1746444;80;21097;-74
2022/09/16 04:04:57;;;;;;;2.15;1.42;;;;;;;22.18;72.73;153232.03;1729768;80;21058;-74
2022/09/16 04:07:24;;;;;;;4.92;1.60;;;;;;;22.24;72.93;153245.09;1742292;80;21065;-77
2022/09/16 04:09:50;;;;;;;8.63;1.65;;;;;;;22.29;72.97;153259.50;1739838;80;21077;-74
2022/09/16 04:12:17;;;;;;;2.37;1.60;;;;;;;22.31;72.97;153264.72;1743431;80;21754;-62
2022/09/16 04:14:44;;;;;;;3.87;1.67;;;;;;;22.36;73.19;153275.17;1724474;80;21547;-61
2022/09/16 04:17:11;;;;;;;4.20;1.72;;;;;;;22.39;73.30;153283.02;1742476;80;21041;-61
2022/09/16 04:19:38;;;;;;;2.08;1.50;;;;;;;22.40;73.67;153285.62;1755560;80;21453;-62
2022/09/16 04:22:05;;;;;;;2.83;2.00;;;;;;;22.40;73.96;153285.62;1724308;80;21102;-62
2022/09/16 04:24:32;;;;;;;7.83;1.90;;;;;;;22.39;74.03;153283.02;1740302;80;21329;-62
2022/09/16 04:26:58;;;;;;;6.78;2.10;;;;;;;22.40;74.14;153285.62;1726017;80;21469;-62
2022/09/16 04:29:25;;;;;;;9.43;2.50;;;;;;;22.38;74.23;153281.73;1725198;80;20999;-61
2022/09/16 04:31:53;;;;;;;7.05;2.10;;;;;;;22.39;74.31;153283.02;1730875;80;21007;-62
2022/09/16 04:34:20;;;;;;;6.90;1.90;;;;;;;22.38;74.37;153281.73;1732380;80;21003;-61
2022/09/16 04:36:47;;;;;;;2.85;1.90;;;;;;;22.40;74.61;153285.62;1720173;80;21813;-62
2022/09/16 04:39:14;;;;;;;4.53;1.65;;;;;;;22.40;74.86;153285.62;1726020;80;21054;-62
2022/09/16 04:41:41;;;;;;;5.80;2.12;;;;;;;22.40;74.94;153285.62;1742132;80;21043;-62
2022/09/16 04:44:09;;;;;;;6.72;2.58;;;;;;;22.41;75.06;153288.25;1716253;81;21503;-76
2022/09/16 04:46:36;;;;;;;5.28;1.90;;;;;;;22.40;74.97;153285.62;1735741;80;21033;-74
2022/09/16 04:49:03;;;;;;;5.10;2.08;;;;;;;22.40;74.93;153285.62;1737011;80;21129;-74
2022/09/16 04:51:31;;;;;;;5.87;1.95;;;;;;;22.41;75.02;153288.25;1728757;80;21489;-75
2022/09/16 04:53:58;;;;;;;5.78;2.20;;;;;;;22.41;75.19;153288.25;1709949;81;21024;-75
2022/09/16 04:56:28;;;;;;;7.58;2.08;;;;;;;22.39;75.36;153284.34;1738176;80;21074;-74
2022/09/16 04:58:57;;;;;;;6.47;2.20;;;;;;;22.39;75.49;153284.34;1741490;80;21094;-75
2022/09/16 05:01:27;;;;;;;4.45;2.52;;;;;;;22.43;75.43;153293.47;1724394;80;22371;-73
2022/09/16 05:03:57;;;;;;;8.45;2.15;;;;;;;22.54;75.25;153322.31;1703883;81;21018;-62
2022/09/16 05:06:28;;;;;;;7.60;2.65;;;;;;;22.75;74.50;153375.94;1723725;82;21074;-62
2022/09/16 05:08:55;;;;;;;5.95;2.00;;;;;;;22.86;74.19;153403.41;1736305;80;21241;-62
2022/09/16 05:11:24;;;;;;;5.78;1.85;;;;;;;23.07;73.98;153455.75;1733438;80;21080;-73
2022/09/16 05:13:51;;;;;;;6.78;2.33;;;;;;;23.46;73.12;153553.98;1733368;80;21209;-73
2022/09/16 05:16:20;;;;;;;6.95;2.15;;;;;;;23.88;71.62;153659.98;1716074;80;21046;-72
2022/09/16 05:18:49;;;;;;;7.75;2.47;;;;;;;24.10;70.38;153715.03;1730532;80;21452;-73
2022/09/16 05:21:18;;;;;;;6.62;2.25;;;;;;;24.25;69.48;153754.33;1724025;80;21542;-75
2022/09/16 05:23:45;;;;;;;5.85;2.02;;;;;;;24.29;69.17;153763.45;1736068;80;21015;-73
2022/09/16 05:26:15;;;;;;;6.47;2.45;;;;;;;24.30;69.09;153767.41;1756911;80;21186;-73
2022/09/16 05:28:42;;;;;;;8.20;2.75;;;;;;;24.35;68.87;153777.88;1740179;80;21345;-77
2022/09/16 05:31:20;;;;;;;7.25;3.00;;;;;;;24.39;68.70;153788.34;1745761;81;21764;-73
2022/09/16 05:33:55;;;;;;;8.30;2.80;;;;;;;24.50;68.51;153817.17;1738255;80;21022;-73
2022/09/16 05:36:22;;;;;;;8.73;2.90;;;;;;;24.58;68.08;153838.11;1751769;80;21102;-75
2022/09/16 05:38:49;;;;;;;8.98;2.58;;;;;;;24.55;68.06;153830.25;1747037;80;21904;-73
2022/09/16 05:41:16;;;;;;;6.35;2.40;;;;;;;24.50;68.20;153815.84;1750548;80;21109;-75
2022/09/16 05:43:42;;;;;;;9.53;2.62;;;;;;;24.48;68.02;153811.94;1751459;80;21028;-73
2022/09/16 05:46:12;;;;;;;9.13;2.70;;;;;;;24.41;67.68;153794.91;1747697;80;21087;-72
2022/09/16 05:48:39;;;;;;;8.55;3.62;;;;;;;24.31;67.73;153770.03;1753606;80;21033;-73
2022/09/16 05:51:06;;;;;;;9.98;3.87;;;;;;;24.22;67.69;153746.47;1746904;80;21249;-74
2022/09/16 05:53:34;;;;;;;8.33;4.12;;;;;;;24.17;67.88;153733.34;1738355;80;22297;-73
2022/09/16 05:56:07;;;;;;;8.60;3.52;;;;;;;24.23;68.09;153749.09;1743951;80;21029;-73
2022/09/16 05:58:35;;;;;;;10.38;3.65;;;;;;;24.32;68.16;153772.64;1743367;80;21987;-74
2022/09/16 06:01:06;;;;;;;9.85;3.20;;;;;;;24.45;67.88;153805.38;1742958;80;21167;-75
2022/09/16 06:03:34;;;;;;;11.45;4.05;;;;;;;24.54;67.66;153827.64;1751299;80;21521;-76
2022/09/16 06:06:04;;;;;;;10.35;3.70;;;;;;;24.58;67.55;153838.11;1750508;80;21023;-76
2022/09/16 06:08:35;;;;;;;12.28;4.47;;;;;;;24.55;67.10;153830.25;1747276;80;20988;-74
2022/09/16 06:11:03;;;;;;;5.40;3.25;;;;;;;24.54;66.82;153827.64;1747409;80;21101;-76
2022/09/16 06:13:31;;;;;;;8.53;3.95;;;;;;;24.51;66.56;153818.45;1747628;80;21067;-75
2022/09/16 06:15:58;;;;;;;12.75;2.95;;;;;;;24.50;65.94;153817.17;1745660;80;22006;-75
2022/09/16 06:18:28;;;;;;;6.08;2.70;;;;;;;24.51;65.63;153819.78;1736704;80;21082;-75
2022/09/16 06:20:55;;;;;;;13.25;3.02;;;;;;;24.48;65.54;153811.94;1743787;80;21588;-75
2022/09/16 06:23:22;;;;;;;10.75;3.00;;;;;;;24.43;65.71;153798.86;1749218;80;21104;-74
2022/09/16 06:26:02;;;;;;;11.30;3.40;;;;;;;24.39;65.71;153788.34;1752390;80;21064;-75
2022/09/16 06:28:29;;;;;;;10.40;3.02;;;;;;;24.30;66.02;153766.08;1748820;80;21845;-75
2022/09/16 06:31:09;;;;;;;7.10;3.33;;;;;;;24.28;66.08;153760.84;1752015;80;21044;-75
2022/09/16 06:33:37;;;;;;;12.53;3.17;;;;;;;24.23;66.27;153749.09;1748170;80;21030;-62
2022/09/16 06:36:11;;;;;;;12.50;2.90;;;;;;;24.21;66.51;153743.86;1756475;80;21578;-62
2022/09/16 06:38:39;;;;;;;10.80;3.52;;;;;;;24.17;66.69;153733.34;1750344;80;21668;-62
2022/09/16 06:41:08;;;;;;;10.40;3.55;;;;;;;24.15;66.78;153728.11;1750362;80;21903;-62
2022/09/16 06:43:35;;;;;;;7.85;2.92;;;;;;;24.14;66.84;153726.83;1750069;80;20968;-62
2022/09/16 06:46:17;;;;;;;7.83;2.83;;;;;;;24.13;66.81;153724.22;1758785;80;21108;-62
2022/09/16 06:48:46;;;;;;;7.33;2.77;;;;;;;24.12;67.07;153720.25;1745543;80;21118;-63
2022/09/16 06:51:17;;;;;;;8.18;2.92;;;;;;;24.16;67.32;153730.72;1744649;80;21083;-62
2022/09/16 06:53:44;;;;;;;8.05;3.10;;;;;;;24.20;67.29;153741.19;1756423;80;21980;-63
2022/09/16 06:56:14;;;;;;;12.00;3.62;;;;;;;24.24;67.26;153751.70;1747477;80;21018;-63
2022/09/16 06:58:42;;;;;;;11.22;2.92;;;;;;;24.32;67.19;153771.36;1753929;80;21011;-63
2022/09/16 07:01:11;;;;;;;9.60;3.15;;;;;;;24.42;66.89;153796.19;1751047;80;21097;-62
2022/09/16 07:03:43;;;;;;;8.55;3.42;;;;;;;24.47;66.38;153809.33;1749493;80;21119;-62
2022/09/16 07:06:10;;;;;;;10.88;2.87;;;;;;;24.52;66.14;153822.41;1749862;80;21264;-62
2022/09/16 07:08:38;;;;;;;12.53;3.20;;;;;;;24.57;65.64;153835.48;1750210;80;21034;-61
2022/09/16 07:11:13;;;;;;;11.65;2.87;;;;;;;24.57;65.73;153835.48;1751462;80;21054;-64
2022/09/16 07:13:40;;;;;;;5.72;2.83;;;;;;;24.59;65.55;153840.72;1752410;80;21028;-63
2022/09/16 07:16:10;;;;;;;9.68;3.15;;;;;;;24.57;65.27;153835.48;1753399;80;22732;-62
2022/09/16 07:18:37;;;;;;;6.85;2.60;;;;;;;24.53;65.47;153823.69;1751040;80;21381;-63
2022/09/16 07:21:07;;;;;;;7.12;2.92;;;;;;;24.52;65.52;153822.41;1739899;80;21107;-63
2022/09/16 07:23:35;;;;;;;9.00;3.17;;;;;;;24.51;65.55;153818.45;1743012;80;21080;-63
2022/09/16 07:26:09;;;;;;;5.37;3.00;;;;;;;24.49;65.62;153814.56;1705261;83;21375;-63
2022/09/16 07:28:37;;;;;;;7.92;3.10;;;;;;;24.49;65.79;153813.22;1709571;83;21068;-63
2022/09/16 07:31:08;;;;;;;10.75;3.40;;;;;;;24.50;65.91;153817.17;1710919;82;21526;-63
2022/09/16 07:33:38;;;;;;;6.65;3.15;;;;;;;24.52;66.01;153821.08;1709367;82;21573;-63
2022/09/16 07:36:07;;;;;;;8.23;3.27;;;;;;;24.56;65.90;153832.87;1706437;82;21471;-62
2022/09/16 07:38:34;;;;;;;7.80;3.15;;;;;;;24.59;65.53;153840.72;1693132;82;21088;-62
2022/09/16 07:41:14;;;;;;;8.83;3.40;;;;;;;24.61;65.44;153845.95;1702164;83;21124;-62
2022/09/16 07:43:42;;;;;;;12.78;3.33;;;;;;;24.64;65.38;153851.19;1740600;80;21766;-62
2022/09/16 07:46:12;;;;;;;6.83;3.12;;;;;;;24.69;65.42;153864.33;1748070;80;21050;-63
2022/09/16 07:48:39;;;;;;;9.60;3.22;;;;;;;24.71;65.09;153869.56;1742253;80;21528;-63
2022/09/16 07:51:14;;;;;;;13.20;3.52;;;;;;;24.71;65.05;153870.84;1742298;80;21605;-62
2022/09/16 07:53:41;;;;;;;8.88;3.00;;;;;;;24.77;65.12;153885.31;1743619;80;21076;-63
2022/09/16 07:56:13;;;;;;;12.30;3.10;;;;;;;24.85;64.34;153904.97;1675440;84;21888;-60
2022/09/16 07:58:40;;;;;;;7.08;3.80;;;;;;;24.93;64.15;153925.91;1694442;83;21041;-61
2022/09/16 08:01:08;;;;;;;12.20;3.70;;;;;;;25.00;64.01;153942.95;1705015;83;21119;-62
2022/09/16 08:03:38;;;;;;;9.13;3.52;;;;;;;25.10;63.62;153969.17;1709869;83;21045;-75
2022/09/16 08:06:09;;;;;;;12.73;3.60;;;;;;;25.14;63.32;153978.31;1705194;82;20960;-76
2022/09/16 08:08:36;;;;;;;7.22;3.00;;;;;;;25.16;62.99;153984.88;1701948;82;22053;-74
2022/09/16 08:11:03;;;;;;;7.85;3.33;;;;;;;25.24;62.63;154003.22;1709838;83;21050;-71
2022/09/16 08:13:32;;;;;;;16.48;3.50;;;;;;;25.30;62.29;154018.92;1707845;83;22733;-75
2022/09/16 08:16:02;;;;;;;8.40;3.12;;;;;;;25.39;61.95;154042.53;1710170;83;20975;-74
2022/09/16 08:18:29;;;;;;;8.78;3.75;;;;;;;25.49;61.64;154066.14;1741679;80;21490;-75
2022/09/16 08:20:56;;;;;;;15.68;4.58;;;;;;;25.52;60.88;154074.00;1744713;80;20894;-74
2022/09/16 08:23:24;;;;;;;11.97;3.60;;;;;;;25.55;60.59;154083.19;1744668;80;21092;-72
2022/09/16 08:25:57;;;;;;;9.33;3.45;;;;;;;25.64;60.35;154105.47;1745364;80;21479;-69
2022/09/16 08:28:25;;;;;;;11.28;4.10;;;;;;;25.79;59.82;154142.19;1747635;80;21067;-75
2022/09/16 08:30:52;;;;;;;7.95;3.35;;;;;;;25.96;59.31;154186.70;1742819;80;21032;-74
2022/09/16 08:33:21;;;;;;;10.55;2.83;;;;;;;26.13;57.57;154230.00;1746356;80;21153;-75
2022/09/16 08:36:05;;;;;;;14.07;3.22;;;;;;;26.27;56.36;154265.44;1751161;80;21013;-75
2022/09/16 08:38:32;;;;;;;7.92;3.02;;;;;;;26.49;56.01;154320.50;1739052;80;20925;-77
2022/09/16 08:41:31;;;;;;;13.80;3.17;;;;;;;26.71;54.90;154375.56;1748339;80;21095;-76
2022/09/16 08:44:30;;;;;;;8.58;3.42;;;;;;;26.85;54.20;154412.31;1746968;80;21063;-76
2022/09/16 08:47:03;;;;;;;8.00;2.50;;;;;;;27.04;53.26;154459.52;1744747;80;21247;-79
2022/09/16 08:49:43;;;;;;;6.33;2.25;;;;;;;27.12;52.25;154479.20;1748654;80;21400;-76
2022/09/16 08:52:30;;;;;;;7.58;2.40;;;;;;;27.11;52.13;154477.91;1746715;80;21103;-77
2022/09/16 08:55:22;;;;;;;8.93;2.35;;;;;;;27.13;52.08;154483.16;1746299;80;21058;-76
2022/09/16 08:58:03;;;;;;;7.60;2.50;;;;;;;27.10;51.79;154475.30;1743438;80;21092;-75
2022/09/16 09:00:30;;;;;;;7.62;2.90;;;;;;;27.07;52.03;154467.39;1754260;80;21357;-75
2022/09/16 09:03:15;;;;;;;7.25;2.85;;;;;;;27.04;52.31;154459.52;1745511;80;21048;-78
2022/09/16 09:05:53;;;;;;;9.03;2.20;;;;;;;27.06;52.25;154464.77;1753592;80;21028;-75
2022/09/16 09:08:35;;;;;;;4.65;2.30;;;;;;;27.08;51.92;154470.06;1745757;80;21343;-77
2022/09/16 09:11:35;;;;;;;7.53;2.40;;;;;;;27.08;51.40;154470.06;1746210;80;21056;-77
2022/09/16 09:14:28;;;;;;;5.87;2.30;;;;;;;27.03;51.43;154456.91;1744767;80;21336;-76
2022/09/16 09:17:06;;;;;;;8.88;2.72;;;;;;;27.00;51.79;154449.03;1746968;80;21113;-77
2022/09/16 09:19:51;;;;;;;8.70;3.00;;;;;;;27.03;52.26;154458.23;1745200;80;21024;-78
2022/09/16 09:22:48;;;;;;;;;;;;;;;27.12;52.04;154480.53;1745342;80;21950;-76
2022/09/16 09:25:35;;;;;;;6.92;2.20;;;;;;;27.21;51.42;154501.50;1719693;80;20198;-76
2022/09/16 09:28:11;;;;;;;9.05;2.62;;;;;;;27.31;51.36;154527.77;1729666;80;21251;-77
2022/09/16 09:30:41;;;;;;;7.62;2.83;;;;;;;27.41;51.04;154553.97;1725569;80;21057;-75
2022/09/16 09:33:36;;;;;;;6.08;2.22;;;;;;;27.50;51.13;154574.94;1723035;80;21124;-76
2022/09/16 09:36:31;;;;;;;5.20;2.45;;;;;;;27.53;50.70;154582.91;1702393;82;21036;-62
2022/09/16 09:39:12;;;;;;;8.40;2.22;;;;;;;27.50;51.14;154574.94;1723639;80;21078;-62
2022/09/16 09:41:47;;;;;;;10.45;2.62;;;;;;;27.50;51.32;154576.28;1725426;80;21384;-65
2022/09/16 09:44:46;;;;;;;7.60;2.47;;;;;;;27.56;50.72;154590.78;1740060;80;20921;-62
2022/09/16 09:47:51;;;;;;;5.65;2.15;;;;;;;27.60;50.65;154601.25;1656505;84;21065;-62
2022/09/16 09:50:32;;;;;;;8.48;2.85;;;;;;;27.63;49.99;154609.13;1692039;82;21092;-61
2022/09/16 09:53:27;;;;;;;9.93;2.25;;;;;;;27.59;50.31;154599.92;1724862;80;21033;-61
2022/09/16 09:56:29;;;;;;;7.95;2.00;;;;;;;27.54;50.56;154586.81;1730702;80;21226;-61
2022/09/16 09:59:30;;;;;;;4.83;2.12;;;;;;;27.52;50.59;154580.23;1715258;80;21214;-61
2022/09/16 10:01:59;;;;;;;5.83;2.22;;;;;;;27.49;50.68;154572.31;1726279;80;21153;-62
2022/09/16 10:04:34;;;;;;;7.33;2.45;;;;;;;27.49;50.56;154572.31;1729634;80;21458;-61
2022/09/16 10:07:00;;;;;;;3.37;2.00;;;;;;;27.49;50.43;154573.66;1727600;80;21044;-76
2022/09/16 10:09:28;;;;;;;5.70;1.90;;;;;;;27.51;50.35;154577.56;1729365;80;21141;-77
2022/09/16 10:11:55;;;;;;;7.05;2.00;;;;;;;27.52;49.92;154580.23;1737635;80;21103;-78
2022/09/16 10:14:34;;;;;;;7.15;2.35;;;;;;;27.46;50.34;154567.08;1723627;80;21642;-75
2022/09/16 10:17:05;;;;;;;14.98;2.30;;;;;;;27.49;50.38;154572.31;1722108;80;21026;-76
2022/09/16 10:19:52;;;;;;;9.40;2.20;;;;;;;27.51;50.29;154577.56;1727440;80;21149;-76
2022/09/16 10:22:26;;;;;;;5.87;1.80;;;;;;;27.52;50.15;154580.23;1716520;80;21527;-74
2022/09/16 10:24:59;;;;;;;7.30;2.12;;;;;;;27.52;49.82;154580.23;1710777;83;21047;-76
2022/09/16 10:27:34;;;;;;;7.72;2.00;;;;;;;27.46;50.44;154567.08;1688264;83;21110;-77
2022/09/16 10:30:14;;;;;;;4.25;1.90;;;;;;;27.48;50.20;154571.03;1715813;82;21047;-76
2022/09/16 10:33:03;;;;;;;7.85;2.00;;;;;;;27.46;49.86;154567.08;1716543;82;21046;-75
2022/09/16 10:35:34;;;;;;;9.78;2.10;;;;;;;27.48;49.84;154569.70;1712555;82;21250;-77
2022/09/16 10:38:06;;;;;;;6.50;1.82;;;;;;;27.51;49.74;154577.56;1707328;82;21054;-76
2022/09/16 10:40:33;;;;;;;4.72;1.70;;;;;;;27.55;49.19;154588.16;1749846;80;21600;-74
2022/09/16 10:43:05;;;;;;;4.70;1.80;;;;;;;27.54;49.32;154585.53;1743305;80;21058;-76
2022/09/16 10:45:36;;;;;;;5.83;1.60;;;;;;;27.55;49.49;154588.16;1748905;80;21199;-76
2022/09/16 10:48:08;;;;;;;3.08;1.32;;;;;;;27.56;49.57;154590.78;1750090;80;21234;-74
2022/09/16 10:50:35;;;;;;;6.17;1.45;;;;;;;27.56;49.11;154590.78;1743407;80;21017;-76
2022/09/16 10:53:02;;;;;;;7.12;1.50;;;;;;;27.53;48.80;154582.91;1699843;82;21113;-78
2022/09/16 10:55:34;;;;;;;2.92;1.22;;;;;;;27.48;48.73;154571.03;1719192;83;21017;-75
2022/09/16 10:58:14;;;;;;;6.78;1.65;;;;;;;27.43;49.15;154559.22;1706713;83;20918;-75
2022/09/16 11:00:49;;;;;;;4.42;1.50;;;;;;;27.34;49.18;154535.63;1720284;83;21503;-77
2022/09/16 11:03:46;;;;;;;5.47;1.47;;;;;;;27.26;49.57;154514.61;1696443;83;21082;-76
2022/09/16 11:06:27;;;;;;;8.50;2.20;;;;;;;27.23;49.86;154508.08;1689105;83;21119;-76
2022/09/16 11:09:32;;;;;;;7.22;2.20;;;;;;;27.28;49.99;154519.86;1716400;83;21040;-76
2022/09/16 11:12:27;;;;;;;6.45;2.50;;;;;;;27.38;49.83;154544.78;1690970;83;21052;-76
2022/09/16 11:15:01;;;;;;;;;;;;;;;27.37;49.48;154543.50;1705528;83;21157;-75
2022/09/16 11:17:50;;;;;;;8.75;2.42;;;;;;;27.28;49.69;154519.86;1690248;83;20186;-75
2022/09/16 11:21:06;;;;;;;3.50;2.05;;;;;;;27.18;49.94;154494.92;1695906;83;21060;-75
2022/09/16 11:24:04;;;;;;;6.45;1.60;;;;;;;27.10;50.19;154473.97;1715384;82;21539;-74
2022/09/16 11:26:46;;;;;;;3.12;1.42;;;;;;;27.04;50.69;154459.52;1715063;83;21071;-76
2022/09/16 11:29:33;;;;;;;11.65;1.82;;;;;;;27.02;51.08;154455.62;1714435;83;21240;-74
2022/09/16 11:32:21;;;;;;;4.97;1.47;;;;;;;27.06;51.24;154464.77;1719351;82;21568;-77
2022/09/16 11:35:09;;;;;;;3.62;1.42;;;;;;;27.14;50.68;154485.78;1710794;83;21078;-78
2022/09/16 11:37:54;;;;;;;3.40;1.50;;;;;;;27.19;50.13;154496.27;1714259;83;21082;-75
2022/09/16 11:40:54;;;;;;;7.95;1.80;;;;;;;27.19;50.21;154496.27;1710249;83;21054;-75
2022/09/16 11:43:41;;;;;;;5.30;1.30;;;;;;;27.21;50.60;154501.50;1683182;83;21546;-78
2022/09/16 11:46:22;;;;;;;6.45;1.30;;;;;;;27.17;50.07;154493.64;1695752;83;21052;-75
2022/09/16 11:49:09;;;;;;;3.17;1.60;;;;;;;27.07;49.58;154466.09;1690195;83;21083;-74
2022/09/16 11:51:58;;;;;;;3.58;0.93;;;;;;;26.95;49.46;154435.94;1699811;83;21111;-75
2022/09/16 11:54:39;;;;;;;6.33;1.25;;;;;;;26.92;49.41;154428.08;1697968;83;21038;-74
2022/09/16 11:57:10;;;;;;;2.87;1.22;;;;;;;26.84;49.72;154408.34;1689802;83;21122;-75
2022/09/16 11:59:51;;;;;;;1.70;1.15;;;;;;;26.80;50.33;154399.16;1687851;83;21095;-78